sensor_id;sensor_type;location;lat;lon;timestamp;pressure;altitude;pressure_sealevel;temperature;humidity
73106;BME280;61559;50.476;15.588;2023-02-28T00:00:39;98736.16;;;-2.47;73.28
73106;BME280;61559;50.476;15.588;2023-02-28T00:03:19;98738.76;;;-2.53;73.18
73106;BME280;61559;50.476;15.588;2023-02-28T00:05:50;98742.70;;;-2.59;73.47
73106;BME280;61559;50.476;15.588;2023-02-28T00:08:22;98743.56;;;-2.67;73.59
73106;BME280;61559;50.476;15.588;2023-02-28T00:10:53;98741.09;;;-2.77;73.84
73106;BME280;61559;50.476;15.588;2023-02-28T00:13:24;98743.35;;;-2.85;74.19
73106;BME280;61559;50.476;15.588;2023-02-28T00:16:02;98747.20;;;-2.92;74.37
73106;BME280;61559;50.476;15.588;2023-02-28T00:18:33;98746.13;;;-2.97;74.75
73106;BME280;61559;50.476;15.588;2023-02-28T00:21:06;98741.90;;;-3.00;74.96
73106;BME280;61559;50.476;15.588;2023-02-28T00:23:37;98744.02;;;-3.02;74.97
73106;BME280;61559;50.476;15.588;2023-02-28T00:26:08;98744.25;;;-3.04;74.96
73106;BME280;61559;50.476;15.588;2023-02-28T00:28:39;98744.87;;;-3.05;75.00
73106;BME280;61559;50.476;15.588;2023-02-28T00:31:10;98746.36;;;-3.07;75.06
73106;BME280;61559;50.476;15.588;2023-02-28T00:33:41;98750.27;;;-3.09;75.12
73106;BME280;61559;50.476;15.588;2023-02-28T00:36:12;98745.95;;;-3.12;75.28
73106;BME280;61559;50.476;15.588;2023-02-28T00:38:43;98747.98;;;-3.16;75.35
73106;BME280;61559;50.476;15.588;2023-02-28T00:41:14;98746.48;;;-3.22;75.21
73106;BME280;61559;50.476;15.588;2023-02-28T00:43:45;98748.23;;;-3.24;75.31
73106;BME280;61559;50.476;15.588;2023-02-28T00:46:16;98750.61;;;-3.28;75.27
73106;BME280;61559;50.476;15.588;2023-02-28T00:48:47;98748.85;;;-3.32;75.54
73106;BME280;61559;50.476;15.588;2023-02-28T00:51:18;98748.36;;;-3.35;75.77
73106;BME280;61559;50.476;15.588;2023-02-28T00:53:49;98746.48;;;-3.37;75.96
73106;BME280;61559;50.476;15.588;2023-02-28T00:56:20;98743.44;;;-3.44;75.95
73106;BME280;61559;50.476;15.588;2023-02-28T00:58:52;98743.09;;;-3.49;76.10
73106;BME280;61559;50.476;15.588;2023-02-28T01:01:23;98740.70;;;-3.53;76.33
73106;BME280;61559;50.476;15.588;2023-02-28T01:03:54;98745.49;;;-3.53;76.49
73106;BME280;61559;50.476;15.588;2023-02-28T01:06:25;98744.34;;;-3.53;76.51
73106;BME280;61559;50.476;15.588;2023-02-28T01:08:56;98742.35;;;-3.54;76.32
73106;BME280;61559;50.476;15.588;2023-02-28T01:11:27;98741.92;;;-3.54;76.32
73106;BME280;61559;50.476;15.588;2023-02-28T01:13:58;98740.90;;;-3.57;76.71
73106;BME280;61559;50.476;15.588;2023-02-28T01:16:30;98743.73;;;-3.58;76.76
73106;BME280;61559;50.476;15.588;2023-02-28T01:19:01;98740.05;;;-3.58;76.71
73106;BME280;61559;50.476;15.588;2023-02-28T01:21:32;98742.02;;;-3.59;76.74
73106;BME280;61559;50.476;15.588;2023-02-28T01:24:05;98737.90;;;-3.60;76.44
73106;BME280;61559;50.476;15.588;2023-02-28T01:26:36;98741.48;;;-3.59;76.42
73106;BME280;61559;50.476;15.588;2023-02-28T01:29:08;98740.47;;;-3.58;76.50
73106;BME280;61559;50.476;15.588;2023-02-28T01:31:39;98736.73;;;-3.57;76.59
73106;BME280;61559;50.476;15.588;2023-02-28T01:34:10;98736.06;;;-3.57;76.49
73106;BME280;61559;50.476;15.588;2023-02-28T01:36:41;98738.81;;;-3.56;76.54
73106;BME280;61559;50.476;15.588;2023-02-28T01:39:13;98739.20;;;-3.57;76.45
73106;BME280;61559;50.476;15.588;2023-02-28T01:41:44;98741.80;;;-3.56;76.55
73106;BME280;61559;50.476;15.588;2023-02-28T01:47:17;98743.25;;;-3.54;76.24
73106;BME280;61559;50.476;15.588;2023-02-28T01:49:48;98738.70;;;-3.56;76.09
73106;BME280;61559;50.476;15.588;2023-02-28T01:52:21;98743.33;;;-3.55;76.17
73106;BME280;61559;50.476;15.588;2023-02-28T01:54:56;98742.61;;;-3.57;76.03
73106;BME280;61559;50.476;15.588;2023-02-28T01:57:34;98739.30;;;-3.60;76.08
73106;BME280;61559;50.476;15.588;2023-02-28T02:00:10;98736.91;;;-3.64;76.17
73106;BME280;61559;50.476;15.588;2023-02-28T02:02:47;98737.86;;;-3.65;76.05
73106;BME280;61559;50.476;15.588;2023-02-28T02:05:22;98741.42;;;-3.67;76.06
73106;BME280;61559;50.476;15.588;2023-02-28T02:07:56;98739.71;;;-3.68;75.97
73106;BME280;61559;50.476;15.588;2023-02-28T02:10:31;98741.14;;;-3.70;76.10
73106;BME280;61559;50.476;15.588;2023-02-28T02:13:24;98740.58;;;-3.72;76.23
73106;BME280;61559;50.476;15.588;2023-02-28T02:16:07;98739.81;;;-3.76;76.27
73106;BME280;61559;50.476;15.588;2023-02-28T02:18:45;98744.44;;;-3.79;76.27
73106;BME280;61559;50.476;15.588;2023-02-28T02:21:52;98743.60;;;-3.84;76.21
73106;BME280;61559;50.476;15.588;2023-02-28T02:24:51;98741.98;;;-3.87;76.17
73106;BME280;61559;50.476;15.588;2023-02-28T02:27:37;98739.91;;;-3.89;76.23
73106;BME280;61559;50.476;15.588;2023-02-28T02:33:35;98736.11;;;-3.91;76.14
73106;BME280;61559;50.476;15.588;2023-02-28T02:36:19;98730.09;;;-3.93;76.44
73106;BME280;61559;50.476;15.588;2023-02-28T02:38:55;98730.77;;;-3.96;76.21
73106;BME280;61559;50.476;15.588;2023-02-28T02:41:36;98729.31;;;-3.99;76.29
73106;BME280;61559;50.476;15.588;2023-02-28T02:44:13;98731.01;;;-4.01;76.46
73106;BME280;61559;50.476;15.588;2023-02-28T02:46:47;98733.12;;;-4.02;76.59
73106;BME280;61559;50.476;15.588;2023-02-28T02:49:25;98730.48;;;-4.02;76.60
73106;BME280;61559;50.476;15.588;2023-02-28T02:52:03;98728.35;;;-4.04;76.53
73106;BME280;61559;50.476;15.588;2023-02-28T02:54:37;98731.69;;;-4.06;76.52
73106;BME280;61559;50.476;15.588;2023-02-28T02:57:13;98730.16;;;-4.09;76.64
73106;BME280;61559;50.476;15.588;2023-02-28T02:59:47;98732.28;;;-4.10;76.59
73106;BME280;61559;50.476;15.588;2023-02-28T03:02:22;98729.60;;;-4.11;76.67
73106;BME280;61559;50.476;15.588;2023-02-28T03:04:59;98731.11;;;-4.11;76.68
73106;BME280;61559;50.476;15.588;2023-02-28T03:07:32;98733.55;;;-4.12;76.48
73106;BME280;61559;50.476;15.588;2023-02-28T03:12:54;98739.27;;;-4.12;76.50
73106;BME280;61559;50.476;15.588;2023-02-28T03:15:34;98736.82;;;-4.14;76.46
73106;BME280;61559;50.476;15.588;2023-02-28T03:18:10;98741.88;;;-4.14;76.48
73106;BME280;61559;50.476;15.588;2023-02-28T03:20:50;98736.60;;;-4.16;76.46
73106;BME280;61559;50.476;15.588;2023-02-28T03:23:35;98738.10;;;-4.18;76.60
73106;BME280;61559;50.476;15.588;2023-02-28T03:26:14;98733.97;;;-4.21;76.55
73106;BME280;61559;50.476;15.588;2023-02-28T03:29:05;98738.20;;;-4.24;76.50
73106;BME280;61559;50.476;15.588;2023-02-28T03:31:46;98737.51;;;-4.28;76.85
73106;BME280;61559;50.476;15.588;2023-02-28T03:34:24;98734.44;;;-4.31;76.75
73106;BME280;61559;50.476;15.588;2023-02-28T03:36:59;98733.11;;;-4.32;76.74
73106;BME280;61559;50.476;15.588;2023-02-28T03:39:36;98732.75;;;-4.36;76.90
73106;BME280;61559;50.476;15.588;2023-02-28T03:42:12;98731.52;;;-4.38;76.93
73106;BME280;61559;50.476;15.588;2023-02-28T03:44:49;98729.95;;;-4.41;77.00
73106;BME280;61559;50.476;15.588;2023-02-28T03:47:24;98730.90;;;-4.43;76.94
73106;BME280;61559;50.476;15.588;2023-02-28T03:49:59;98735.52;;;-4.45;77.05
73106;BME280;61559;50.476;15.588;2023-02-28T03:52:34;98734.02;;;-4.48;76.88
73106;BME280;61559;50.476;15.588;2023-02-28T03:55:10;98732.62;;;-4.53;77.12
73106;BME280;61559;50.476;15.588;2023-02-28T03:57:51;98736.27;;;-4.60;77.25
73106;BME280;61559;50.476;15.588;2023-02-28T04:00:27;98738.87;;;-4.67;77.30
73106;BME280;61559;50.476;15.588;2023-02-28T04:03:00;98737.60;;;-4.70;77.37
73106;BME280;61559;50.476;15.588;2023-02-28T04:05:33;98730.73;;;-4.72;77.29
73106;BME280;61559;50.476;15.588;2023-02-28T04:08:15;98733.35;;;-4.73;77.42
73106;BME280;61559;50.476;15.588;2023-02-28T04:10:50;98733.34;;;-4.74;77.54
73106;BME280;61559;50.476;15.588;2023-02-28T04:13:22;98733.16;;;-4.77;77.45
73106;BME280;61559;50.476;15.588;2023-02-28T04:15:53;98734.27;;;-4.78;77.35
73106;BME280;61559;50.476;15.588;2023-02-28T04:18:24;98732.20;;;-4.80;77.44
73106;BME280;61559;50.476;15.588;2023-02-28T04:21:01;98729.92;;;-4.82;77.38
73106;BME280;61559;50.476;15.588;2023-02-28T04:23:32;98731.02;;;-4.84;77.24
73106;BME280;61559;50.476;15.588;2023-02-28T04:26:04;98731.00;;;-4.87;77.26
73106;BME280;61559;50.476;15.588;2023-02-28T04:28:38;98733.34;;;-4.91;77.27
73106;BME280;61559;50.476;15.588;2023-02-28T04:31:10;98742.15;;;-4.95;77.31
73106;BME280;61559;50.476;15.588;2023-02-28T04:33:41;98739.98;;;-5.00;77.18
73106;BME280;61559;50.476;15.588;2023-02-28T04:36:12;98742.89;;;-5.04;77.03
73106;BME280;61559;50.476;15.588;2023-02-28T04:38:45;98744.30;;;-5.09;77.20
73106;BME280;61559;50.476;15.588;2023-02-28T04:41:17;98742.20;;;-5.14;77.46
73106;BME280;61559;50.476;15.588;2023-02-28T04:43:49;98745.96;;;-5.19;77.72
73106;BME280;61559;50.476;15.588;2023-02-28T04:46:21;98745.13;;;-5.25;77.79
73106;BME280;61559;50.476;15.588;2023-02-28T04:48:52;98742.77;;;-5.30;77.91
73106;BME280;61559;50.476;15.588;2023-02-28T04:51:23;98745.56;;;-5.32;78.08
73106;BME280;61559;50.476;15.588;2023-02-28T04:53:55;98749.59;;;-5.34;77.93
73106;BME280;61559;50.476;15.588;2023-02-28T04:56:26;98746.07;;;-5.37;77.95
73106;BME280;61559;50.476;15.588;2023-02-28T04:58:57;98748.40;;;-5.39;77.96
73106;BME280;61559;50.476;15.588;2023-02-28T05:01:30;98750.21;;;-5.45;77.99
73106;BME280;61559;50.476;15.588;2023-02-28T05:04:04;98751.01;;;-5.52;78.36
73106;BME280;61559;50.476;15.588;2023-02-28T05:06:35;98756.85;;;-5.56;78.54
73106;BME280;61559;50.476;15.588;2023-02-28T05:09:07;98757.55;;;-5.61;78.59
73106;BME280;61559;50.476;15.588;2023-02-28T05:11:38;98757.73;;;-5.64;78.73
73106;BME280;61559;50.476;15.588;2023-02-28T05:14:12;98761.56;;;-5.67;78.63
73106;BME280;61559;50.476;15.588;2023-02-28T05:16:44;98758.16;;;-5.69;78.58
73106;BME280;61559;50.476;15.588;2023-02-28T05:19:15;98761.67;;;-5.69;78.79
73106;BME280;61559;50.476;15.588;2023-02-28T05:21:52;98760.31;;;-5.71;78.95
73106;BME280;61559;50.476;15.588;2023-02-28T06:05:36;98786.92;;;-5.20;77.12
73106;BME280;61559;50.476;15.588;2023-02-28T06:08:08;98790.35;;;-5.15;76.83
73106;BME280;61559;50.476;15.588;2023-02-28T06:10:39;98792.00;;;-5.08;76.59
73106;BME280;61559;50.476;15.588;2023-02-28T06:13:10;98797.57;;;-4.98;76.45
73106;BME280;61559;50.476;15.588;2023-02-28T06:15:42;98796.63;;;-4.90;75.97
73106;BME280;61559;50.476;15.588;2023-02-28T06:18:13;98797.52;;;-4.81;75.69
73106;BME280;61559;50.476;15.588;2023-02-28T06:20:44;98798.81;;;-4.72;75.63
73106;BME280;61559;50.476;15.588;2023-02-28T06:23:18;98798.40;;;-4.65;75.04
73106;BME280;61559;50.476;15.588;2023-02-28T06:25:49;98800.05;;;-4.55;75.03
73106;BME280;61559;50.476;15.588;2023-02-28T06:28:20;98802.73;;;-4.47;74.95
73106;BME280;61559;50.476;15.588;2023-02-28T06:30:51;98806.83;;;-4.39;74.60
73106;BME280;61559;50.476;15.588;2023-02-28T06:33:22;98812.85;;;-4.30;74.30
73106;BME280;61559;50.476;15.588;2023-02-28T06:35:54;98817.58;;;-4.22;73.98
73106;BME280;61559;50.476;15.588;2023-02-28T06:38:25;98818.51;;;-4.14;73.77
73106;BME280;61559;50.476;15.588;2023-02-28T06:40:57;98821.79;;;-4.07;72.65
73106;BME280;61559;50.476;15.588;2023-02-28T06:43:32;98826.72;;;-3.97;71.93
73106;BME280;61559;50.476;15.588;2023-02-28T06:46:06;98826.06;;;-3.88;71.97
73106;BME280;61559;50.476;15.588;2023-02-28T06:48:37;98826.71;;;-3.80;71.77
73106;BME280;61559;50.476;15.588;2023-02-28T06:51:11;98823.56;;;-3.72;71.03
73106;BME280;61559;50.476;15.588;2023-02-28T06:53:42;98824.36;;;-3.63;71.38
73106;BME280;61559;50.476;15.588;2023-02-28T06:56:16;98822.98;;;-3.56;70.64
73106;BME280;61559;50.476;15.588;2023-02-28T06:58:49;98823.31;;;-3.49;70.41
73106;BME280;61559;50.476;15.588;2023-02-28T07:01:22;98820.85;;;-3.42;70.01
73106;BME280;61559;50.476;15.588;2023-02-28T07:03:54;98824.79;;;-3.34;70.33
73106;BME280;61559;50.476;15.588;2023-02-28T07:06:25;98825.92;;;-3.26;69.86
73106;BME280;61559;50.476;15.588;2023-02-28T07:08:57;98824.96;;;-3.18;68.77
73106;BME280;61559;50.476;15.588;2023-02-28T07:11:29;98827.60;;;-3.09;69.28
73106;BME280;61559;50.476;15.588;2023-02-28T07:14:00;98826.23;;;-3.01;69.01
73106;BME280;61559;50.476;15.588;2023-02-28T07:16:31;98830.91;;;-2.94;68.69
73106;BME280;61559;50.476;15.588;2023-02-28T07:19:03;98834.55;;;-2.87;68.36
73106;BME280;61559;50.476;15.588;2023-02-28T07:21:33;98834.58;;;-2.80;67.17
73106;BME280;61559;50.476;15.588;2023-02-28T07:24:05;98837.05;;;-2.73;67.59
73106;BME280;61559;50.476;15.588;2023-02-28T07:26:37;98835.54;;;-2.66;67.38
73106;BME280;61559;50.476;15.588;2023-02-28T07:29:08;98839.23;;;-2.58;66.92
73106;BME280;61559;50.476;15.588;2023-02-28T07:31:39;98843.98;;;-2.50;66.30
73106;BME280;61559;50.476;15.588;2023-02-28T07:34:10;98845.77;;;-2.41;66.72
73106;BME280;61559;50.476;15.588;2023-02-28T07:36:41;98849.23;;;-2.34;65.64
73106;BME280;61559;50.476;15.588;2023-02-28T07:39:12;98848.02;;;-2.27;65.55
73106;BME280;61559;50.476;15.588;2023-02-28T07:41:43;98844.73;;;-2.20;65.95
73106;BME280;61559;50.476;15.588;2023-02-28T07:44:14;98849.61;;;-2.12;65.82
73106;BME280;61559;50.476;15.588;2023-02-28T07:46:45;98849.23;;;-2.05;65.54
73106;BME280;61559;50.476;15.588;2023-02-28T07:49:17;98853.84;;;-1.98;63.54
73106;BME280;61559;50.476;15.588;2023-02-28T07:51:48;98849.69;;;-1.93;63.69
73106;BME280;61559;50.476;15.588;2023-02-28T07:54:19;98852.27;;;-1.87;63.68
73106;BME280;61559;50.476;15.588;2023-02-28T07:56:51;98855.72;;;-1.81;63.32
73106;BME280;61559;50.476;15.588;2023-02-28T07:59:22;98857.42;;;-1.74;63.43
73106;BME280;61559;50.476;15.588;2023-02-28T08:01:53;98856.60;;;-1.67;63.74
73106;BME280;61559;50.476;15.588;2023-02-28T08:04:24;98859.36;;;-1.61;62.63
73106;BME280;61559;50.476;15.588;2023-02-28T08:06:55;98860.64;;;-1.56;62.15
73106;BME280;61559;50.476;15.588;2023-02-28T08:09:26;98854.30;;;-1.52;61.92
73106;BME280;61559;50.476;15.588;2023-02-28T08:11:57;98852.79;;;-1.48;61.65
73106;BME280;61559;50.476;15.588;2023-02-28T08:14:28;98857.34;;;-1.44;61.12
73106;BME280;61559;50.476;15.588;2023-02-28T08:16:59;98854.42;;;-1.41;61.03
73106;BME280;61559;50.476;15.588;2023-02-28T08:19:31;98853.80;;;-1.40;59.40
73106;BME280;61559;50.476;15.588;2023-02-28T08:22:02;98852.40;;;-1.38;59.87
73106;BME280;61559;50.476;15.588;2023-02-28T08:24:33;98851.73;;;-1.38;59.04
73106;BME280;61559;50.476;15.588;2023-02-28T08:27:04;98843.08;;;-1.38;58.93
73106;BME280;61559;50.476;15.588;2023-02-28T08:29:35;98847.66;;;-1.38;58.20
73106;BME280;61559;50.476;15.588;2023-02-28T08:32:07;98846.61;;;-1.36;58.64
73106;BME280;61559;50.476;15.588;2023-02-28T08:34:57;98844.34;;;-1.32;59.20
73106;BME280;61559;50.476;15.588;2023-02-28T08:37:28;98844.35;;;-1.28;58.73
73106;BME280;61559;50.476;15.588;2023-02-28T08:39:59;98845.55;;;-1.24;58.53
73106;BME280;61559;50.476;15.588;2023-02-28T08:42:31;98849.63;;;-1.20;58.42
73106;BME280;61559;50.476;15.588;2023-02-28T08:45:02;98847.63;;;-1.18;57.91
73106;BME280;61559;50.476;15.588;2023-02-28T08:47:33;98850.73;;;-1.13;58.31
73106;BME280;61559;50.476;15.588;2023-02-28T08:50:05;98846.81;;;-1.08;58.43
73106;BME280;61559;50.476;15.588;2023-02-28T08:52:37;98849.09;;;-1.01;58.73
73106;BME280;61559;50.476;15.588;2023-02-28T08:55:09;98848.91;;;-0.95;57.52
73106;BME280;61559;50.476;15.588;2023-02-28T08:57:41;98847.52;;;-0.93;56.82
73106;BME280;61559;50.476;15.588;2023-02-28T09:00:13;98849.73;;;-0.91;57.77
73106;BME280;61559;50.476;15.588;2023-02-28T09:02:44;98853.96;;;-0.89;56.64
73106;BME280;61559;50.476;15.588;2023-02-28T09:05:16;98851.73;;;-0.87;56.32
73106;BME280;61559;50.476;15.588;2023-02-28T09:07:47;98846.20;;;-0.85;57.00
73106;BME280;61559;50.476;15.588;2023-02-28T09:10:19;98849.09;;;-0.83;56.96
73106;BME280;61559;50.476;15.588;2023-02-28T09:12:50;98854.95;;;-0.79;57.24
73106;BME280;61559;50.476;15.588;2023-02-28T09:15:22;98845.26;;;-0.77;56.99
73106;BME280;61559;50.476;15.588;2023-02-28T09:17:53;98846.34;;;-0.73;57.03
73106;BME280;61559;50.476;15.588;2023-02-28T09:20:24;98845.08;;;-0.70;57.32
73106;BME280;61559;50.476;15.588;2023-02-28T09:22:55;98843.98;;;-0.68;56.68
73106;BME280;61559;50.476;15.588;2023-02-28T09:25:26;98849.73;;;-0.64;56.76
73106;BME280;61559;50.476;15.588;2023-02-28T09:27:57;98847.83;;;-0.65;55.99
73106;BME280;61559;50.476;15.588;2023-02-28T09:30:27;98845.67;;;-0.63;57.14
73106;BME280;61559;50.476;15.588;2023-02-28T09:32:58;98849.05;;;-0.58;57.57
73106;BME280;61559;50.476;15.588;2023-02-28T09:35:29;98849.02;;;-0.51;56.89
73106;BME280;61559;50.476;15.588;2023-02-28T09:38:00;98846.35;;;-0.48;56.19
73106;BME280;61559;50.476;15.588;2023-02-28T09:40:34;98843.65;;;-0.44;56.55
73106;BME280;61559;50.476;15.588;2023-02-28T09:43:09;98845.90;;;-0.42;56.26
73106;BME280;61559;50.476;15.588;2023-02-28T09:45:45;98851.02;;;-0.37;57.24
73106;BME280;61559;50.476;15.588;2023-02-28T09:48:23;98848.47;;;-0.33;56.78
73106;BME280;61559;50.476;15.588;2023-02-28T09:51:02;98851.24;;;-0.27;56.67
73106;BME280;61559;50.476;15.588;2023-02-28T09:53:36;98850.51;;;-0.22;56.06
73106;BME280;61559;50.476;15.588;2023-02-28T09:56:13;98850.88;;;-0.18;55.90
73106;BME280;61559;50.476;15.588;2023-02-28T09:58:51;98850.52;;;-0.17;56.22
73106;BME280;61559;50.476;15.588;2023-02-28T10:01:27;98851.27;;;-0.12;56.40
73106;BME280;61559;50.476;15.588;2023-02-28T10:04:05;98850.92;;;-0.05;56.90
73106;BME280;61559;50.476;15.588;2023-02-28T10:06:43;98851.87;;;0.02;56.12
73106;BME280;61559;50.476;15.588;2023-02-28T10:09:19;98848.09;;;0.03;55.20
73106;BME280;61559;50.476;15.588;2023-02-28T10:11:54;98849.19;;;0.02;55.01
73106;BME280;61559;50.476;15.588;2023-02-28T10:14:29;98849.98;;;0.05;55.24
73106;BME280;61559;50.476;15.588;2023-02-28T10:17:06;98848.94;;;0.09;55.64
73106;BME280;61559;50.476;15.588;2023-02-28T10:19:46;98844.17;;;0.12;55.50
73106;BME280;61559;50.476;15.588;2023-02-28T10:22:26;98841.79;;;0.18;55.40
73106;BME280;61559;50.476;15.588;2023-02-28T10:25:00;98840.33;;;0.25;55.96
73106;BME280;61559;50.476;15.588;2023-02-28T10:27:35;98840.75;;;0.31;54.83
73106;BME280;61559;50.476;15.588;2023-02-28T10:30:13;98836.19;;;0.33;54.52
73106;BME280;61559;50.476;15.588;2023-02-28T10:32:49;98834.36;;;0.37;54.90
73106;BME280;61559;50.476;15.588;2023-02-28T10:35:25;98834.02;;;0.39;54.58
73106;BME280;61559;50.476;15.588;2023-02-28T10:37:58;98833.09;;;0.40;54.25
73106;BME280;61559;50.476;15.588;2023-02-28T10:40:35;98830.55;;;0.40;53.91
73106;BME280;61559;50.476;15.588;2023-02-28T10:43:19;98830.09;;;0.40;54.14
73106;BME280;61559;50.476;15.588;2023-02-28T10:45:58;98827.89;;;0.42;53.96
73106;BME280;61559;50.476;15.588;2023-02-28T10:48:35;98827.02;;;0.43;54.89
73106;BME280;61559;50.476;15.588;2023-02-28T10:51:09;98820.66;;;0.48;54.83
73106;BME280;61559;50.476;15.588;2023-02-28T10:53:48;98821.70;;;0.50;53.70
73106;BME280;61559;50.476;15.588;2023-02-28T10:56:30;98819.60;;;0.53;54.01
73106;BME280;61559;50.476;15.588;2023-02-28T10:59:28;98818.02;;;0.55;54.03
73106;BME280;61559;50.476;15.588;2023-02-28T11:01:54;98822.60;;;0.58;53.79
73106;BME280;61559;50.476;15.588;2023-02-28T11:04:36;98814.11;;;0.61;54.23
73106;BME280;61559;50.476;15.588;2023-02-28T11:07:19;98813.39;;;0.68;55.26
73106;BME280;61559;50.476;15.588;2023-02-28T11:09:55;98811.39;;;0.78;53.81
73106;BME280;61559;50.476;15.588;2023-02-28T11:12:31;98811.20;;;0.80;53.43
73106;BME280;61559;50.476;15.588;2023-02-28T11:15:24;98813.39;;;0.84;54.12
73106;BME280;61559;50.476;15.588;2023-02-28T11:17:58;98813.07;;;0.89;53.49
73106;BME280;61559;50.476;15.588;2023-02-28T11:20:32;98809.71;;;0.93;53.94
73106;BME280;61559;50.476;15.588;2023-02-28T11:23:05;98810.21;;;0.98;54.57
73106;BME280;61559;50.476;15.588;2023-02-28T11:25:45;98810.44;;;1.06;53.98
73106;BME280;61559;50.476;15.588;2023-02-28T11:28:29;98813.48;;;1.12;52.68
73106;BME280;61559;50.476;15.588;2023-02-28T11:31:13;98802.45;;;1.12;53.06
73106;BME280;61559;50.476;15.588;2023-02-28T11:33:47;98800.88;;;1.16;54.85
73106;BME280;61559;50.476;15.588;2023-02-28T11:36:21;98794.10;;;1.21;52.65
73106;BME280;61559;50.476;15.588;2023-02-28T11:38:55;98788.88;;;1.21;53.16
73106;BME280;61559;50.476;15.588;2023-02-28T11:41:37;98789.21;;;1.26;52.89
73106;BME280;61559;50.476;15.588;2023-02-28T11:44:20;98786.84;;;1.27;52.49
73106;BME280;61559;50.476;15.588;2023-02-28T11:46:56;98783.98;;;1.29;52.32
73106;BME280;61559;50.476;15.588;2023-02-28T11:49:34;98783.06;;;1.34;52.99
73106;BME280;61559;50.476;15.588;2023-02-28T11:52:17;98787.46;;;1.41;52.85
73106;BME280;61559;50.476;15.588;2023-02-28T11:55:13;98785.02;;;1.45;52.85
73106;BME280;61559;50.476;15.588;2023-02-28T11:58:08;98785.23;;;1.47;52.33
73106;BME280;61559;50.476;15.588;2023-02-28T12:01:06;98780.11;;;1.47;51.55
73106;BME280;61559;50.476;15.588;2023-02-28T12:03:48;98779.30;;;1.50;51.88
73106;BME280;61559;50.476;15.588;2023-02-28T12:06:28;98770.48;;;1.54;52.20
73106;BME280;61559;50.476;15.588;2023-02-28T12:09:09;98771.54;;;1.57;51.55
73106;BME280;61559;50.476;15.588;2023-02-28T12:11:52;98771.78;;;1.57;51.02
73106;BME280;61559;50.476;15.588;2023-02-28T12:14:52;98767.52;;;1.60;51.84
73106;BME280;61559;50.476;15.588;2023-02-28T12:17:36;98762.60;;;1.63;52.28
73106;BME280;61559;50.476;15.588;2023-02-28T12:20:21;98760.66;;;1.68;51.50
73106;BME280;61559;50.476;15.588;2023-02-28T12:23:04;98764.16;;;1.69;51.35
73106;BME280;61559;50.476;15.588;2023-02-28T12:25:51;98757.63;;;1.72;51.17
73106;BME280;61559;50.476;15.588;2023-02-28T12:28:30;98756.27;;;1.74;51.24
73106;BME280;61559;50.476;15.588;2023-02-28T12:31:08;98751.78;;;1.77;51.27
73106;BME280;61559;50.476;15.588;2023-02-28T12:33:45;98754.26;;;1.81;50.72
73106;BME280;61559;50.476;15.588;2023-02-28T12:36:19;98746.52;;;1.84;51.15
73106;BME280;61559;50.476;15.588;2023-02-28T12:38:55;98739.48;;;1.90;52.02
73106;BME280;61559;50.476;15.588;2023-02-28T12:41:34;98743.50;;;1.97;51.70
73106;BME280;61559;50.476;15.588;2023-02-28T12:44:11;98737.30;;;2.02;51.94
73106;BME280;61559;50.476;15.588;2023-02-28T12:46:46;98737.22;;;2.05;50.55
73106;BME280;61559;50.476;15.588;2023-02-28T12:49:21;98734.16;;;2.07;51.58
73106;BME280;61559;50.476;15.588;2023-02-28T12:51:55;98733.30;;;2.12;51.60
73106;BME280;61559;50.476;15.588;2023-02-28T12:54:30;98727.34;;;2.15;51.86
73106;BME280;61559;50.476;15.588;2023-02-28T12:57:08;98727.88;;;2.21;51.56
73106;BME280;61559;50.476;15.588;2023-02-28T12:59:45;98729.17;;;2.25;51.48
73106;BME280;61559;50.476;15.588;2023-02-28T13:02:39;98728.63;;;2.25;50.18
73106;BME280;61559;50.476;15.588;2023-02-28T13:08:48;98724.94;;;2.19;50.58
73106;BME280;61559;50.476;15.588;2023-02-28T13:11:30;98721.64;;;2.19;50.32
73106;BME280;61559;50.476;15.588;2023-02-28T13:14:05;98722.88;;;2.20;49.87
73106;BME280;61559;50.476;15.588;2023-02-28T13:16:54;98724.23;;;2.24;50.89
73106;BME280;61559;50.476;15.588;2023-02-28T13:19:28;98721.97;;;2.28;50.48
73106;BME280;61559;50.476;15.588;2023-02-28T13:22:00;98717.88;;;2.32;50.68
73106;BME280;61559;50.476;15.588;2023-02-28T13:24:44;98714.67;;;2.34;49.66
73106;BME280;61559;50.476;15.588;2023-02-28T13:33:28;98714.62;;;2.43;49.81
73106;BME280;61559;50.476;15.588;2023-02-28T13:36:21;98714.27;;;2.43;49.38
73106;BME280;61559;50.476;15.588;2023-02-28T13:38:54;98716.38;;;2.45;49.80
73106;BME280;61559;50.476;15.588;2023-02-28T13:41:49;98717.24;;;2.48;50.25
73106;BME280;61559;50.476;15.588;2023-02-28T13:44:21;98715.20;;;2.52;50.65
73106;BME280;61559;50.476;15.588;2023-02-28T13:47:21;98714.92;;;2.53;49.87
73106;BME280;61559;50.476;15.588;2023-02-28T13:49:54;98708.27;;;2.49;50.48
73106;BME280;61559;50.476;15.588;2023-02-28T13:52:51;98706.63;;;2.48;50.78
73106;BME280;61559;50.476;15.588;2023-02-28T13:55:32;98704.20;;;2.46;50.65
73106;BME280;61559;50.476;15.588;2023-02-28T13:58:25;98705.80;;;2.42;50.43
73106;BME280;61559;50.476;15.588;2023-02-28T14:01:14;98710.93;;;2.39;50.51
73106;BME280;61559;50.476;15.588;2023-02-28T14:03:57;98704.84;;;2.35;50.57
73106;BME280;61559;50.476;15.588;2023-02-28T14:06:33;98702.41;;;2.33;51.19
73106;BME280;61559;50.476;15.588;2023-02-28T14:09:18;98699.86;;;2.35;51.70
73106;BME280;61559;50.476;15.588;2023-02-28T14:11:53;98698.13;;;2.37;51.26
73106;BME280;61559;50.476;15.588;2023-02-28T14:17:33;98701.42;;;2.37;51.17
73106;BME280;61559;50.476;15.588;2023-02-28T14:20:12;98699.20;;;2.38;51.41
73106;BME280;61559;50.476;15.588;2023-02-28T14:22:54;98694.92;;;2.38;51.06
73106;BME280;61559;50.476;15.588;2023-02-28T14:25:35;98693.52;;;2.38;51.39
73106;BME280;61559;50.476;15.588;2023-02-28T14:28:14;98690.38;;;2.37;51.00
73106;BME280;61559;50.476;15.588;2023-02-28T14:31:09;98695.17;;;2.40;52.15
73106;BME280;61559;50.476;15.588;2023-02-28T14:33:57;98698.95;;;2.40;51.65
73106;BME280;61559;50.476;15.588;2023-02-28T14:36:33;98694.90;;;2.41;51.22
73106;BME280;61559;50.476;15.588;2023-02-28T14:39:10;98699.48;;;2.41;51.43